Salt Flat, TX (79847)

12:14 AM CDT on May 26, 2017 (GMT -0500)
Guadalupe Pass | | Change Station

Elev 5453 ft 31.83 °N, 104.80 °W | Updated 23 minutes ago

Clear
Clear
77 °F
Feels Like 77 °F
N
45
Wind Variable Wind from WSW
Gusts 53 mph

Today
High -- | Low -- °F
--% Chance of Precip.
Yesterday
High -- | Low -- °F
Precip. -- in
Pressure 29.63 in
Visibility 10.0 miles
Clouds Clear
Dew Point 26 °F
Humidity 15%
Rainfall 0.00 in
Snow Depth Not available.
6:57 AM 8:57 PM
New Moon, 0% visible
METAR KGDP 260451Z AUTO 25039G46KT 10SM CLR 25/M03 A2992 RMK AO2 PK WND 25048/0437 SLP032 T02501033
Pressure 29.63 in
Visibility 10.0 miles
Clouds Clear
Dew Point 26 °F
Humidity 15%
Rainfall 0.00 in
Snow Depth Not available.
6:57 AM 8:57 PM
New Moon, 0% visible
METAR KGDP 260451Z AUTO 25039G46KT 10SM CLR 25/M03 A2992 RMK AO2 PK WND 25048/0437 SLP032 T02501033

Get Severe Weather Alerts

Thanks for signing up!

Be on the lookout for a verification email in your inbox.

You'll start receiving the daily forecast at 6 AM.

×

10-Day Weather Forecast

Almanac

Astronomy

May. 26, 2017 Rise Set
Actual Time
Civil Twilight
Nautical Twilight
Astronomical Twilight
Moon
Length of Visible Light
Length of Day
Tomorrow will be .
, % of the Moon is Illuminated

Today's Extremes

State Highs State Lows

Community

WunderPhotos

Category 6

Welcome to Category 6. This is the collective home for Weather Underground's featured writeups by Dr. Jeff Masters (right), Bob Henson (left), Chris Burt, and other regular contributors.

Nearby

Air Quality

  Air Quality AQ Index Pollutant
Not available.

Snow Depth

Station Depth Elevation

Earthquake Activity

City Distance Mag. Time & Date
Minimum magnitude displayed is 2.5.

Coastal Water Temperatures

Place Temperature

Stations

Nearby Weather Stations

Station Location Temp. Windchill Dew Point Humidity Wind Precip. Elev Updated Type
                   

Watches & Warnings

There are currently no watches in effect.